sensor_id;sensor_type;location;lat;lon;timestamp;pressure;altitude;pressure_sealevel;temperature;humidity
50672;BME280;46021;55.882;37.654;2023-05-02T00:00:58;100016.47;;;1.66;71.14
50672;BME280;46021;55.882;37.654;2023-05-02T00:03:29;100023.31;;;1.65;71.01
50672;BME280;46021;55.882;37.654;2023-05-02T00:05:58;100025.84;;;1.62;71.12
50672;BME280;46021;55.882;37.654;2023-05-02T00:08:25;100030.13;;;1.62;71.26
50672;BME280;46021;55.882;37.654;2023-05-02T00:10:53;100034.41;;;1.60;72.10
50672;BME280;46021;55.882;37.654;2023-05-02T00:13:21;100036.09;;;1.61;71.80
50672;BME280;46021;55.882;37.654;2023-05-02T00:15:48;100036.94;;;1.58;71.42
50672;BME280;46021;55.882;37.654;2023-05-02T00:18:15;100035.22;;;1.59;71.13
50672;BME280;46021;55.882;37.654;2023-05-02T00:20:43;100040.34;;;1.55;71.00
50672;BME280;46021;55.882;37.654;2023-05-02T00:23:10;100042.84;;;1.51;70.79
50672;BME280;46021;55.882;37.654;2023-05-02T00:25:43;100044.50;;;1.44;70.86
50672;BME280;46021;55.882;37.654;2023-05-02T00:28:11;100053.03;;;1.43;70.84
50672;BME280;46021;55.882;37.654;2023-05-02T00:30:42;100047.84;;;1.37;71.10
50672;BME280;46021;55.882;37.654;2023-05-02T00:33:10;100062.41;;;1.36;71.74
50672;BME280;46021;55.882;37.654;2023-05-02T00:35:39;100056.38;;;1.33;71.84
50672;BME280;46021;55.882;37.654;2023-05-02T00:38:06;100062.31;;;1.30;71.58
50672;BME280;46021;55.882;37.654;2023-05-02T00:40:44;100058.88;;;1.27;71.78
50672;BME280;46021;55.882;37.654;2023-05-02T00:43:12;100055.41;;;1.23;71.96
50672;BME280;46021;55.882;37.654;2023-05-02T00:45:41;100058.75;;;1.17;71.28
50672;BME280;46021;55.882;37.654;2023-05-02T00:48:11;100061.28;;;1.14;71.15
50672;BME280;46021;55.882;37.654;2023-05-02T00:50:40;100071.50;;;1.11;72.13
50672;BME280;46021;55.882;37.654;2023-05-02T00:53:08;100068.06;;;1.08;71.56
50672;BME280;46021;55.882;37.654;2023-05-02T00:55:36;100071.41;;;1.02;72.10
50672;BME280;46021;55.882;37.654;2023-05-02T00:58:06;100079.88;;;0.98;71.68
50672;BME280;46021;55.882;37.654;2023-05-02T01:00:45;100089.25;;;0.93;72.45
50672;BME280;46021;55.882;37.654;2023-05-02T01:03:24;100074.59;;;0.86;71.42
50672;BME280;46021;55.882;37.654;2023-05-02T01:05:59;100086.50;;;0.81;71.22
50672;BME280;46021;55.882;37.654;2023-05-02T01:08:35;100095.00;;;0.76;71.49
50672;BME280;46021;55.882;37.654;2023-05-02T01:11:13;100093.22;;;0.72;71.22
50672;BME280;46021;55.882;37.654;2023-05-02T01:13:42;100097.44;;;0.69;71.11
50672;BME280;46021;55.882;37.654;2023-05-02T01:16:11;100101.66;;;0.65;72.86
50672;BME280;46021;55.882;37.654;2023-05-02T01:18:41;100111.00;;;0.62;72.72
50672;BME280;46021;55.882;37.654;2023-05-02T01:21:10;100110.97;;;0.58;72.62
50672;BME280;46021;55.882;37.654;2023-05-02T01:23:45;100111.78;;;0.56;72.05
50672;BME280;46021;55.882;37.654;2023-05-02T01:26:22;100117.75;;;0.53;72.34
50672;BME280;46021;55.882;37.654;2023-05-02T01:29:01;100118.56;;;0.52;72.65
50672;BME280;46021;55.882;37.654;2023-05-02T01:31:32;100121.09;;;0.49;72.12
50672;BME280;46021;55.882;37.654;2023-05-02T01:34:01;100118.50;;;0.48;72.19
50672;BME280;46021;55.882;37.654;2023-05-02T01:36:31;100128.75;;;0.48;72.27
50672;BME280;46021;55.882;37.654;2023-05-02T01:39:01;100129.63;;;0.48;72.17
50672;BME280;46021;55.882;37.654;2023-05-02T01:41:31;100137.28;;;0.47;72.52
50672;BME280;46021;55.882;37.654;2023-05-02T01:44:01;100143.28;;;0.46;73.27
50672;BME280;46021;55.882;37.654;2023-05-02T01:46:31;100143.25;;;0.44;72.71
50672;BME280;46021;55.882;37.654;2023-05-02T01:49:01;100135.47;;;0.41;72.71
50672;BME280;46021;55.882;37.654;2023-05-02T01:51:31;100139.72;;;0.39;73.54
50672;BME280;46021;55.882;37.654;2023-05-02T01:54:01;100147.38;;;0.37;72.28
50672;BME280;46021;55.882;37.654;2023-05-02T01:56:31;100151.69;;;0.38;73.51
50672;BME280;46021;55.882;37.654;2023-05-02T01:59:03;100148.28;;;0.38;72.39
50672;BME280;46021;55.882;37.654;2023-05-02T02:01:31;100156.75;;;0.35;73.41
50672;BME280;46021;55.882;37.654;2023-05-02T02:03:59;100157.66;;;0.37;73.98
50672;BME280;46021;55.882;37.654;2023-05-02T02:06:27;100157.66;;;0.37;73.99
50672;BME280;46021;55.882;37.654;2023-05-02T02:08:54;100157.66;;;0.37;73.83
50672;BME280;46021;55.882;37.654;2023-05-02T02:11:25;100161.09;;;0.39;73.74
50672;BME280;46021;55.882;37.654;2023-05-02T02:13:59;100166.28;;;0.43;73.70
50672;BME280;46021;55.882;37.654;2023-05-02T02:16:50;100174.88;;;0.45;72.69
50672;BME280;46021;55.882;37.654;2023-05-02T02:19:20;100188.75;;;0.56;73.57
50672;BME280;46021;55.882;37.654;2023-05-02T02:21:49;100190.63;;;0.66;73.04
50672;BME280;46021;55.882;37.654;2023-05-02T02:24:20;100188.19;;;0.74;72.92
50672;BME280;46021;55.882;37.654;2023-05-02T02:26:48;100183.19;;;0.83;74.22
50672;BME280;46021;55.882;37.654;2023-05-02T02:29:16;100195.28;;;0.90;72.78
50672;BME280;46021;55.882;37.654;2023-05-02T02:31:45;100198.00;;;1.01;74.18
50672;BME280;46021;55.882;37.654;2023-05-02T02:34:15;100200.75;;;1.12;74.28
50672;BME280;46021;55.882;37.654;2023-05-02T02:36:44;100195.91;;;1.33;74.32
50672;BME280;46021;55.882;37.654;2023-05-02T02:39:29;100201.53;;;1.69;75.92
50672;BME280;46021;55.882;37.654;2023-05-02T02:42:09;100198.59;;;2.10;76.80
50672;BME280;46021;55.882;37.654;2023-05-02T02:44:42;100211.94;;;2.62;77.60
50672;BME280;46021;55.882;37.654;2023-05-02T02:47:18;100210.63;;;3.10;78.04
50672;BME280;46021;55.882;37.654;2023-05-02T02:49:50;100198.84;;;3.53;76.86
50672;BME280;46021;55.882;37.654;2023-05-02T02:52:26;100200.75;;;3.97;77.25
50672;BME280;46021;55.882;37.654;2023-05-02T02:54:57;100211.19;;;4.43;76.34
50672;BME280;46021;55.882;37.654;2023-05-02T02:57:29;100213.81;;;4.81;75.43
50672;BME280;46021;55.882;37.654;2023-05-02T03:00:01;100221.53;;;5.21;75.73
50672;BME280;46021;55.882;37.654;2023-05-02T03:02:34;100213.69;;;5.64;74.68
50672;BME280;46021;55.882;37.654;2023-05-02T03:05:05;100216.13;;;6.03;73.97
50672;BME280;46021;55.882;37.654;2023-05-02T03:07:33;100215.94;;;6.40;73.25
50672;BME280;46021;55.882;37.654;2023-05-02T03:10:01;100212.31;;;6.67;66.38
50672;BME280;46021;55.882;37.654;2023-05-02T03:12:29;100210.44;;;6.86;70.05
50672;BME280;46021;55.882;37.654;2023-05-02T03:15:05;100217.06;;;7.21;70.10
50672;BME280;46021;55.882;37.654;2023-05-02T03:17:35;100215.81;;;7.56;68.33
50672;BME280;46021;55.882;37.654;2023-05-02T03:20:04;100215.47;;;7.87;67.93
50672;BME280;46021;55.882;37.654;2023-05-02T03:22:31;100221.28;;;8.07;65.63
50672;BME280;46021;55.882;37.654;2023-05-02T03:25:00;100219.09;;;8.43;66.60
50672;BME280;46021;55.882;37.654;2023-05-02T03:27:30;100224.63;;;8.79;64.91
50672;BME280;46021;55.882;37.654;2023-05-02T03:30:00;100231.00;;;9.11;63.12
50672;BME280;46021;55.882;37.654;2023-05-02T03:32:30;100236.56;;;9.41;60.91
50672;BME280;46021;55.882;37.654;2023-05-02T03:34:58;100242.13;;;9.69;60.39
50672;BME280;46021;55.882;37.654;2023-05-02T03:37:34;100237.41;;;9.88;58.85
50672;BME280;46021;55.882;37.654;2023-05-02T03:40:01;100235.88;;;10.21;58.31
50672;BME280;46021;55.882;37.654;2023-05-02T03:42:30;100249.91;;;10.54;57.25
50672;BME280;46021;55.882;37.654;2023-05-02T03:44:58;100245.69;;;10.86;55.86
50672;BME280;46021;55.882;37.654;2023-05-02T03:47:29;100250.94;;;11.21;54.58
50672;BME280;46021;55.882;37.654;2023-05-02T03:49:57;100244.16;;;11.48;53.53
50672;BME280;46021;55.882;37.654;2023-05-02T03:52:24;100253.69;;;11.82;51.08
50672;BME280;46021;55.882;37.654;2023-05-02T03:54:54;100253.63;;;12.16;52.45
50672;BME280;46021;55.882;37.654;2023-05-02T03:57:21;100256.88;;;12.53;51.36
50672;BME280;46021;55.882;37.654;2023-05-02T03:59:49;100255.91;;;12.83;50.46
50672;BME280;46021;55.882;37.654;2023-05-02T04:02:24;100257.13;;;13.00;48.90
50672;BME280;46021;55.882;37.654;2023-05-02T04:04:51;100267.38;;;13.34;48.42
50672;BME280;46021;55.882;37.654;2023-05-02T04:07:21;100264.38;;;13.70;48.02
50672;BME280;46021;55.882;37.654;2023-05-02T04:09:58;100260.09;;;13.93;46.63
50672;BME280;46021;55.882;37.654;2023-05-02T04:12:26;100270.88;;;14.09;45.57
50672;BME280;46021;55.882;37.654;2023-05-02T04:14:53;100267.22;;;14.36;45.30
50672;BME280;46021;55.882;37.654;2023-05-02T04:17:24;100269.19;;;14.53;44.23
50672;BME280;46021;55.882;37.654;2023-05-02T04:19:52;100264.41;;;14.87;44.04
50672;BME280;46021;55.882;37.654;2023-05-02T04:22:23;100279.88;;;15.37;43.73
50672;BME280;46021;55.882;37.654;2023-05-02T04:24:55;100270.03;;;15.83;42.26
50672;BME280;46021;55.882;37.654;2023-05-02T04:27:25;100275.91;;;16.09;41.48
50672;BME280;46021;55.882;37.654;2023-05-02T04:29:53;100267.31;;;16.24;40.93
50672;BME280;46021;55.882;37.654;2023-05-02T04:32:22;100275.03;;;16.27;40.48
50672;BME280;46021;55.882;37.654;2023-05-02T04:34:50;100274.34;;;16.43;39.36
50672;BME280;46021;55.882;37.654;2023-05-02T04:37:19;100284.06;;;16.60;39.32
50672;BME280;46021;55.882;37.654;2023-05-02T04:39:46;100283.09;;;16.62;38.33
50672;BME280;46021;55.882;37.654;2023-05-02T04:42:19;100278.88;;;16.96;38.86
50672;BME280;46021;55.882;37.654;2023-05-02T04:45:24;100282.38;;;17.31;37.82
50672;BME280;46021;55.882;37.654;2023-05-02T04:47:52;100281.94;;;17.58;37.68
50672;BME280;46021;55.882;37.654;2023-05-02T04:50:19;100291.75;;;17.89;37.30
50672;BME280;46021;55.882;37.654;2023-05-02T04:52:46;100286.28;;;18.10;36.30
50672;BME280;46021;55.882;37.654;2023-05-02T04:55:14;100288.00;;;18.27;35.66
50672;BME280;46021;55.882;37.654;2023-05-02T04:57:41;100294.63;;;18.18;33.23
50672;BME280;46021;55.882;37.654;2023-05-02T05:00:13;100296.47;;;18.34;35.56
50672;BME280;46021;55.882;37.654;2023-05-02T05:02:41;100291.69;;;18.56;34.65
50672;BME280;46021;55.882;37.654;2023-05-02T05:05:11;100296.19;;;18.54;34.22
50672;BME280;46021;55.882;37.654;2023-05-02T05:07:38;100301.66;;;18.67;31.34
50672;BME280;46021;55.882;37.654;2023-05-02T05:10:07;100291.00;;;19.00;33.78
50672;BME280;46021;55.882;37.654;2023-05-02T05:12:41;100301.53;;;19.32;33.72
50672;BME280;46021;55.882;37.654;2023-05-02T05:15:10;100296.09;;;19.50;33.32
50672;BME280;46021;55.882;37.654;2023-05-02T05:17:38;100295.78;;;19.84;32.40
50672;BME280;46021;55.882;37.654;2023-05-02T05:20:08;100296.56;;;20.01;31.43
50672;BME280;46021;55.882;37.654;2023-05-02T05:22:39;100296.19;;;20.07;31.11
50672;BME280;46021;55.882;37.654;2023-05-02T05:25:09;100299.44;;;20.54;31.88
50672;BME280;46021;55.882;37.654;2023-05-02T05:27:36;100303.81;;;20.40;31.09
50672;BME280;46021;55.882;37.654;2023-05-02T05:30:06;100300.16;;;20.29;30.89
50672;BME280;46021;55.882;37.654;2023-05-02T05:32:34;100306.66;;;20.37;30.25
50672;BME280;46021;55.882;37.654;2023-05-02T05:35:01;100304.56;;;20.98;30.20
50672;BME280;46021;55.882;37.654;2023-05-02T05:37:31;100307.53;;;21.61;30.42
50672;BME280;46021;55.882;37.654;2023-05-02T05:40:01;100285.44;;;21.99;29.52
50672;BME280;46021;55.882;37.654;2023-05-02T05:42:29;100300.03;;;22.56;29.25
50672;BME280;46021;55.882;37.654;2023-05-02T05:45:00;100300.81;;;22.82;28.62
50672;BME280;46021;55.882;37.654;2023-05-02T05:47:30;100306.59;;;23.24;28.55
50672;BME280;46021;55.882;37.654;2023-05-02T05:49:58;100299.34;;;22.78;26.97
50672;BME280;46021;55.882;37.654;2023-05-02T05:52:33;100297.72;;;23.12;27.09
50672;BME280;46021;55.882;37.654;2023-05-02T05:55:03;100302.81;;;23.62;27.55
50672;BME280;46021;55.882;37.654;2023-05-02T05:57:32;100303.41;;;24.12;27.41
50672;BME280;46021;55.882;37.654;2023-05-02T05:59:59;100294.94;;;23.49;25.90
50672;BME280;46021;55.882;37.654;2023-05-02T06:02:26;100303.41;;;21.95;26.00
50672;BME280;46021;55.882;37.654;2023-05-02T06:04:55;100288.97;;;19.80;27.37
50672;BME280;46021;55.882;37.654;2023-05-02T06:07:24;100305.72;;;17.57;28.70
50672;BME280;46021;55.882;37.654;2023-05-02T06:09:52;100312.38;;;16.16;28.93
50672;BME280;46021;55.882;37.654;2023-05-02T06:12:20;100313.38;;;14.88;30.80
50672;BME280;46021;55.882;37.654;2023-05-02T06:14:47;100303.31;;;13.81;31.50
50672;BME280;46021;55.882;37.654;2023-05-02T06:17:15;100313.56;;;13.09;32.44
50672;BME280;46021;55.882;37.654;2023-05-02T06:19:42;100315.16;;;12.26;32.89
50672;BME280;46021;55.882;37.654;2023-05-02T06:22:11;100315.09;;;11.29;34.66
50672;BME280;46021;55.882;37.654;2023-05-02T06:24:38;100300.94;;;11.04;34.29
50672;BME280;46021;55.882;37.654;2023-05-02T06:27:06;100316.91;;;10.90;34.40
50672;BME280;46021;55.882;37.654;2023-05-02T06:29:34;100320.00;;;10.70;34.68
50672;BME280;46021;55.882;37.654;2023-05-02T06:32:01;100313.59;;;10.43;34.89
50672;BME280;46021;55.882;37.654;2023-05-02T06:34:30;100304.78;;;10.05;35.23
50672;BME280;46021;55.882;37.654;2023-05-02T06:36:57;100309.34;;;9.93;35.86
50672;BME280;46021;55.882;37.654;2023-05-02T06:39:25;100313.59;;;9.99;35.86
50672;BME280;46021;55.882;37.654;2023-05-02T06:41:55;100323.13;;;10.00;36.04
50672;BME280;46021;55.882;37.654;2023-05-02T06:44:24;100319.75;;;9.95;36.31
50672;BME280;46021;55.882;37.654;2023-05-02T06:46:51;100326.84;;;9.87;36.39
50672;BME280;46021;55.882;37.654;2023-05-02T06:49:20;100316.75;;;9.68;36.72
50672;BME280;46021;55.882;37.654;2023-05-02T06:51:47;100318.59;;;9.63;36.46
50672;BME280;46021;55.882;37.654;2023-05-02T06:54:15;100323.06;;;9.55;37.07
50672;BME280;46021;55.882;37.654;2023-05-02T06:56:42;100323.94;;;9.55;37.45
50672;BME280;46021;55.882;37.654;2023-05-02T06:59:09;100329.25;;;9.48;37.31
50672;BME280;46021;55.882;37.654;2023-05-02T07:01:38;100323.16;;;9.49;37.75
50672;BME280;46021;55.882;37.654;2023-05-02T07:04:05;100321.41;;;9.51;37.58
50672;BME280;46021;55.882;37.654;2023-05-02T07:06:32;100324.06;;;9.48;37.44
50672;BME280;46021;55.882;37.654;2023-05-02T07:09:00;100325.69;;;9.53;36.94
50672;BME280;46021;55.882;37.654;2023-05-02T07:11:27;100325.66;;;9.56;37.03
50672;BME280;46021;55.882;37.654;2023-05-02T07:13:54;100313.50;;;9.55;37.17
50672;BME280;46021;55.882;37.654;2023-05-02T07:16:21;100327.31;;;9.61;36.87
50672;BME280;46021;55.882;37.654;2023-05-02T07:18:50;100328.31;;;9.52;37.05
50672;BME280;46021;55.882;37.654;2023-05-02T07:21:17;100311.09;;;9.45;37.43
50672;BME280;46021;55.882;37.654;2023-05-02T07:23:44;100315.41;;;9.46;37.62
50672;BME280;46021;55.882;37.654;2023-05-02T07:26:11;100319.09;;;9.34;37.73
50672;BME280;46021;55.882;37.654;2023-05-02T07:28:38;100326.69;;;9.45;37.14
50672;BME280;46021;55.882;37.654;2023-05-02T07:31:05;100311.09;;;9.43;37.36
50672;BME280;46021;55.882;37.654;2023-05-02T07:33:32;100322.91;;;9.64;37.50
50672;BME280;46021;55.882;37.654;2023-05-02T07:36:02;100325.44;;;9.69;37.50
50672;BME280;46021;55.882;37.654;2023-05-02T07:38:29;100323.59;;;9.75;37.67
50672;BME280;46021;55.882;37.654;2023-05-02T07:40:57;100322.75;;;9.73;38.36
50672;BME280;46021;55.882;37.654;2023-05-02T07:43:24;100309.81;;;9.69;37.71
50672;BME280;46021;55.882;37.654;2023-05-02T07:45:52;100321.81;;;9.76;37.70
50672;BME280;46021;55.882;37.654;2023-05-02T07:48:19;100320.84;;;9.82;38.03
50672;BME280;46021;55.882;37.654;2023-05-02T07:50:47;100323.38;;;9.86;37.54
50672;BME280;46021;55.882;37.654;2023-05-02T07:53:15;100322.22;;;10.01;37.59
50672;BME280;46021;55.882;37.654;2023-05-02T07:55:42;100320.34;;;10.09;37.88
50672;BME280;46021;55.882;37.654;2023-05-02T07:58:10;100309.84;;;10.12;36.88
50672;BME280;46021;55.882;37.654;2023-05-02T08:00:37;100320.84;;;10.28;37.06
50672;BME280;46021;55.882;37.654;2023-05-02T08:03:04;100318.16;;;10.30;37.38
50672;BME280;46021;55.882;37.654;2023-05-02T08:05:32;100313.53;;;10.47;37.34
50672;BME280;46021;55.882;37.654;2023-05-02T08:07:59;100308.78;;;10.65;37.39
50672;BME280;46021;55.882;37.654;2023-05-02T08:10:28;100307.81;;;10.69;37.20
50672;BME280;46021;55.882;37.654;2023-05-02T08:12:55;100314.84;;;10.67;37.44
50672;BME280;46021;55.882;37.654;2023-05-02T08:15:23;100312.91;;;10.75;36.98
50672;BME280;46021;55.882;37.654;2023-05-02T08:17:50;100305.00;;;10.80;37.15
50672;BME280;46021;55.882;37.654;2023-05-02T08:20:17;100315.50;;;10.75;36.58
50672;BME280;46021;55.882;37.654;2023-05-02T08:22:45;100312.69;;;10.84;36.70
50672;BME280;46021;55.882;37.654;2023-05-02T08:25:12;100307.13;;;11.00;36.42
50672;BME280;46021;55.882;37.654;2023-05-02T08:27:41;100306.09;;;11.07;36.03
50672;BME280;46021;55.882;37.654;2023-05-02T08:30:08;100296.47;;;11.09;35.72
50672;BME280;46021;55.882;37.654;2023-05-02T08:32:36;100310.13;;;11.19;36.30
50672;BME280;46021;55.882;37.654;2023-05-02T08:35:04;100308.25;;;11.25;36.48
50672;BME280;46021;55.882;37.654;2023-05-02T08:37:32;100314.06;;;11.37;36.00
50672;BME280;46021;55.882;37.654;2023-05-02T08:40:00;100310.41;;;11.44;36.19
50672;BME280;46021;55.882;37.654;2023-05-02T08:42:33;100308.53;;;11.49;35.68
50672;BME280;46021;55.882;37.654;2023-05-02T08:45:02;100304.25;;;11.79;35.62
50672;BME280;46021;55.882;37.654;2023-05-02T08:47:35;100307.72;;;12.44;35.73
50672;BME280;46021;55.882;37.654;2023-05-02T08:50:04;100302.50;;;14.04;35.85
50672;BME280;46021;55.882;37.654;2023-05-02T08:52:31;100295.03;;;16.31;34.89
50672;BME280;46021;55.882;37.654;2023-05-02T08:55:00;100294.06;;;18.45;32.62
50672;BME280;46021;55.882;37.654;2023-05-02T08:57:31;100280.81;;;18.94;27.46
50672;BME280;46021;55.882;37.654;2023-05-02T08:59:59;100290.50;;;19.84;27.46
50672;BME280;46021;55.882;37.654;2023-05-02T09:02:40;100291.19;;;19.58;26.19
50672;BME280;46021;55.882;37.654;2023-05-02T09:05:11;100292.47;;;18.58;28.00
50672;BME280;46021;55.882;37.654;2023-05-02T09:07:46;100285.78;;;17.68;28.05
50672;BME280;46021;55.882;37.654;2023-05-02T09:10:13;100287.69;;;17.12;28.94
50672;BME280;46021;55.882;37.654;2023-05-02T09:12:41;100289.88;;;17.74;29.32
50672;BME280;46021;55.882;37.654;2023-05-02T09:15:09;100281.22;;;18.70;27.00
50672;BME280;46021;55.882;37.654;2023-05-02T09:17:43;100277.38;;;19.83;26.26
50672;BME280;46021;55.882;37.654;2023-05-02T09:20:11;100276.44;;;21.23;26.37
50672;BME280;46021;55.882;37.654;2023-05-02T09:22:46;100266.34;;;22.56;23.81
50672;BME280;46021;55.882;37.654;2023-05-02T09:25:14;100268.72;;;23.56;23.42
50672;BME280;46021;55.882;37.654;2023-05-02T09:27:49;100273.34;;;24.67;21.58
50672;BME280;46021;55.882;37.654;2023-05-02T09:30:21;100271.84;;;24.74;20.68
50672;BME280;46021;55.882;37.654;2023-05-02T09:32:51;100270.94;;;24.41;21.12
50672;BME280;46021;55.882;37.654;2023-05-02T09:35:20;100258.84;;;23.92;22.04
50672;BME280;46021;55.882;37.654;2023-05-02T09:37:51;100260.56;;;22.63;21.90
50672;BME280;46021;55.882;37.654;2023-05-02T09:40:19;100253.44;;;22.39;22.15
50672;BME280;46021;55.882;37.654;2023-05-02T09:42:46;100258.47;;;22.05;22.43
50672;BME280;46021;55.882;37.654;2023-05-02T09:45:20;100263.44;;;22.72;21.72
50672;BME280;46021;55.882;37.654;2023-05-02T09:47:50;100253.16;;;22.79;21.85
50672;BME280;46021;55.882;37.654;2023-05-02T09:50:31;100248.66;;;23.63;20.46
50672;BME280;46021;55.882;37.654;2023-05-02T09:53:03;100242.72;;;24.50;20.74
50672;BME280;46021;55.882;37.654;2023-05-02T09:55:30;100238.63;;;24.78;20.90
50672;BME280;46021;55.882;37.654;2023-05-02T09:57:57;100240.28;;;25.23;20.65
50672;BME280;46021;55.882;37.654;2023-05-02T10:00:39;100232.28;;;24.90;18.74
50672;BME280;46021;55.882;37.654;2023-05-02T10:03:09;100235.81;;;25.12;20.27
50672;BME280;46021;55.882;37.654;2023-05-02T10:05:37;100231.56;;;25.73;20.46
50672;BME280;46021;55.882;37.654;2023-05-02T10:08:05;100234.59;;;26.20;20.09
50672;BME280;46021;55.882;37.654;2023-05-02T10:10:35;100223.28;;;25.97;19.18
50672;BME280;46021;55.882;37.654;2023-05-02T10:13:04;100231.50;;;25.84;19.21
50672;BME280;46021;55.882;37.654;2023-05-02T10:15:34;100217.59;;;26.21;19.31
50672;BME280;46021;55.882;37.654;2023-05-02T10:18:10;100221.09;;;26.12;18.66
50672;BME280;46021;55.882;37.654;2023-05-02T10:20:43;100221.91;;;26.02;18.48
50672;BME280;46021;55.882;37.654;2023-05-02T10:23:11;100222.44;;;25.23;19.26
50672;BME280;46021;55.882;37.654;2023-05-02T10:25:38;100215.69;;;24.43;19.66
50672;BME280;46021;55.882;37.654;2023-05-02T10:28:06;100222.22;;;24.62;20.09
50672;BME280;46021;55.882;37.654;2023-05-02T10:30:34;100221.44;;;25.03;19.67
50672;BME280;46021;55.882;37.654;2023-05-02T10:33:02;100221.03;;;24.87;18.66
50672;BME280;46021;55.882;37.654;2023-05-02T10:35:31;100216.25;;;23.92;18.99
50672;BME280;46021;55.882;37.654;2023-05-02T10:37:59;100219.34;;;23.52;19.66
50672;BME280;46021;55.882;37.654;2023-05-02T10:40:27;100220.38;;;23.27;19.41
50672;BME280;46021;55.882;37.654;2023-05-02T10:42:54;100208.38;;;23.90;20.05
50672;BME280;46021;55.882;37.654;2023-05-02T10:45:32;100213.06;;;24.32;18.44
50672;BME280;46021;55.882;37.654;2023-05-02T10:48:12;100212.31;;;24.85;18.42
50672;BME280;46021;55.882;37.654;2023-05-02T10:50:45;100212.13;;;23.77;18.91
50672;BME280;46021;55.882;37.654;2023-05-02T10:53:23;100210.91;;;24.15;19.08
50672;BME280;46021;55.882;37.654;2023-05-02T10:56:11;100203.03;;;24.68;19.26
50672;BME280;46021;55.882;37.654;2023-05-02T10:58:39;100204.06;;;24.88;18.78
50672;BME280;46021;55.882;37.654;2023-05-02T11:01:31;100195.03;;;25.42;17.80
50672;BME280;46021;55.882;37.654;2023-05-02T11:04:02;100196.38;;;25.16;18.83
50672;BME280;46021;55.882;37.654;2023-05-02T11:06:32;100196.09;;;24.44;18.95
50672;BME280;46021;55.882;37.654;2023-05-02T11:09:31;100195.56;;;24.62;18.70
50672;BME280;46021;55.882;37.654;2023-05-02T11:11:58;100191.88;;;25.27;19.44
50672;BME280;46021;55.882;37.654;2023-05-02T11:14:42;100193.19;;;25.01;17.84
50672;BME280;46021;55.882;37.654;2023-05-02T11:17:09;100191.50;;;24.35;18.81
50672;BME280;46021;55.882;37.654;2023-05-02T11:22:53;100185.53;;;24.54;19.28
50672;BME280;46021;55.882;37.654;2023-05-02T11:25:34;100181.34;;;24.18;18.85
50672;BME280;46021;55.882;37.654;2023-05-02T11:28:04;100179.28;;;24.21;19.34
50672;BME280;46021;55.882;37.654;2023-05-02T11:30:40;100172.19;;;24.10;19.45
50672;BME280;46021;55.882;37.654;2023-05-02T11:33:13;100177.50;;;24.10;19.43
50672;BME280;46021;55.882;37.654;2023-05-02T11:35:43;100169.78;;;23.96;19.31
50672;BME280;46021;55.882;37.654;2023-05-02T11:38:14;100169.97;;;24.16;19.20
50672;BME280;46021;55.882;37.654;2023-05-02T11:40:49;100164.69;;;23.93;18.58
50672;BME280;46021;55.882;37.654;2023-05-02T11:43:18;100173.13;;;23.64;19.71
50672;BME280;46021;55.882;37.654;2023-05-02T11:45:46;100157.91;;;23.89;19.83
50672;BME280;46021;55.882;37.654;2023-05-02T11:48:15;100160.44;;;24.02;19.42
50672;BME280;46021;55.882;37.654;2023-05-02T11:50:44;100162.25;;;23.56;19.68
50672;BME280;46021;55.882;37.654;2023-05-02T11:53:14;100147.84;;;23.47;19.15
50672;BME280;46021;55.882;37.654;2023-05-02T11:55:46;100160.41;;;22.76;18.86
50672;BME280;46021;55.882;37.654;2023-05-02T11:58:15;100155.03;;;22.65;19.99
50672;BME280;46021;55.882;37.654;2023-05-02T12:00:43;100152.78;;;22.10;19.79
50672;BME280;46021;55.882;37.654;2023-05-02T12:03:25;100150.50;;;22.30;19.39
50672;BME280;46021;55.882;37.654;2023-05-02T12:05:53;100146.34;;;21.89;20.59
50672;BME280;46021;55.882;37.654;2023-05-02T12:08:23;100138.38;;;21.89;20.45
50672;BME280;46021;55.882;37.654;2023-05-02T12:10:52;100141.78;;;21.91;20.96
50672;BME280;46021;55.882;37.654;2023-05-02T12:13:21;100142.38;;;21.70;20.80
50672;BME280;46021;55.882;37.654;2023-05-02T12:15:50;100124.34;;;21.63;20.87
50672;BME280;46021;55.882;37.654;2023-05-02T12:18:19;100133.78;;;21.15;21.18
50672;BME280;46021;55.882;37.654;2023-05-02T12:20:49;100138.44;;;21.25;21.35
50672;BME280;46021;55.882;37.654;2023-05-02T12:23:16;100129.31;;;20.90;21.14
50672;BME280;46021;55.882;37.654;2023-05-02T12:25:46;100126.81;;;20.61;20.95
50672;BME280;46021;55.882;37.654;2023-05-02T12:28:15;100119.72;;;20.62;22.23
50672;BME280;46021;55.882;37.654;2023-05-02T12:30:45;100131.31;;;20.74;21.81
50672;BME280;46021;55.882;37.654;2023-05-02T12:33:13;100119.78;;;21.00;21.89
50672;BME280;46021;55.882;37.654;2023-05-02T12:35:41;100121.91;;;20.01;21.95
50672;BME280;46021;55.882;37.654;2023-05-02T12:38:12;100119.91;;;20.32;22.44
50672;BME280;46021;55.882;37.654;2023-05-02T12:40:48;100121.81;;;20.30;22.64
50672;BME280;46021;55.882;37.654;2023-05-02T12:43:15;100126.53;;;19.97;21.80
50672;BME280;46021;55.882;37.654;2023-05-02T12:45:43;100114.59;;;19.77;21.97
50672;BME280;46021;55.882;37.654;2023-05-02T12:48:20;100111.00;;;19.21;22.29
50672;BME280;46021;55.882;37.654;2023-05-02T12:50:49;100116.84;;;18.51;23.21
50672;BME280;46021;55.882;37.654;2023-05-02T12:53:17;100117.25;;;17.97;23.58
50672;BME280;46021;55.882;37.654;2023-05-02T12:56:05;100115.16;;;17.70;23.33
50672;BME280;46021;55.882;37.654;2023-05-02T12:58:40;100111.97;;;17.48;24.33
50672;BME280;46021;55.882;37.654;2023-05-02T13:01:08;100099.34;;;17.54;24.12